Airfield :







YOU CAN JOIN US ON...

 
LOGIN :

Register | Disclaimer

   EN    FR    IT 

 









Legend :    VFR   Marginal VFR   IFR   Intensive IFR   Very Intensive IFR
Visi :
Ceiling :
>= 8 km
>= 3000ft
5 to 8 km
1000 to 3000 ft
1500m to 5 km
500 to 1000 ft
800 to 1500m
200 to 500 ft
< 800m
< 200 ft
Symbols :   Thunderstorms  Fog  Heavy snow  Heavy precipitations  Wind > 20 kt






- Airport Elevation : 203 ft
- IATA code : YQY


CYQY - Sydney

CURRENT METAR :
  • 241100Z 19009KT 5SM BR SCT002 BKN022 M01/M02 A3015 RMK ST3SC3 SLP216

EXPIRED METARs :
  • 241049Z 20007KT 4SM BR SCT005 BKN021 M01/M01 A3015 RMK ST3SC3 SLP214
  • 241028Z 21010G16KT 1 1/2SM BR OVC001 M01/M01 A3015 RMK ST8 SLP214
  • 241012Z 21009G15KT 1SM R06/P6000FT/U BR OVC002 M01/M02 A3015 RMK ST8 SLP216
  • 241000Z 21009G15KT 1/2SM R06/5500FT/N FZFG OVC002 M02/M02 A3015 RMK ST8 SLP215
  • 240934Z 22011G16KT 1/2SM R06/3500VP6000FT/D FZFG VV002 M02/M02 A3015 RMK FG8 SLP215
  • 240920Z 21010G15KT 3/4SM R06/P6000FT/D BR OVC002 M03/M03 A3015 RMK ST8 SLP215
  • 240907Z 20010KT 5SM BR BKN002 M03/M04 A3015 RMK ST6 SLP213

TAF AMD TAF CYQY
Valid from the 24 at 11:00 until the 24 at 18:00 UTC


241110Z 2411/2418 19010KT 6SM BR SCT002 BKN020
TEMPO 2411/2414 11/2SM BR BKN002
FM241400 19012KT 5SM BR BKN006
TEMPO 2414/2417 P6SM NSW SCT006
FM241700 19010G20KT P6SM SCT015
TEMPO 2417/2418 BKN015 RMK NXT FCST BY 241200Z



MET'MAP, your aeronautical weather chart ! - Copyright ORBIFLY December 2007 - Disclaimer

ORBIFLY MET'MAP TEAM :

Programming & Development : Alexandra Zaïnal
Concept & original design : Baudouin d'Aumeries
Assistance for programming : Marc-Olivier Méhu
Technical & hardware support : Manuel Goepfert

Contact : metmap@orbifly.com




SOURCES & CREDITS :

   NOAA